Kitwanga, Canada
Current Conditions -  °F | °C
As of 4:00 PM on Saturday 25 Oct 2014 (Local Time) from CYYD Reporting Station
Rain Showers Rain Showers  
Wind Chill:   Ceiling: 5000
Heat Index:   Visibility: 20mi
Dew Point:   Wind: 2mph
Humidity: 93%   Direction: NA
Pressure: 29.57"   Gusts: NA
Location:  55.1°N, 128.07°W
Report Text: CYYD 252300Z VRB02KT 20SM VCSH FEW003 BKN050 OVC090 04/03 A2957 RMK SF1SC5AC2 SLP028
Loading
Personal Weather Stations






























Interactive Weather Map
Tropical Storm Tracking
New forecast layout! Learn more

10-Day Weather Forecast

Advertisements
Track Severe Weather on mobile